sensor_id;sensor_type;location;lat;lon;timestamp;temperature;humidity
20957;DHT22;10637;47.970;7.830;2023-07-16T00:01:33;20.10;99.90
20957;DHT22;10637;47.970;7.830;2023-07-16T00:06:35;19.80;99.90
20957;DHT22;10637;47.970;7.830;2023-07-16T00:11:36;19.60;99.90
20957;DHT22;10637;47.970;7.830;2023-07-16T00:16:38;19.50;99.90
20957;DHT22;10637;47.970;7.830;2023-07-16T00:21:40;19.50;99.90
20957;DHT22;10637;47.970;7.830;2023-07-16T00:26:42;19.40;99.90
20957;DHT22;10637;47.970;7.830;2023-07-16T00:31:44;19.30;99.90
20957;DHT22;10637;47.970;7.830;2023-07-16T00:36:46;19.10;99.90
20957;DHT22;10637;47.970;7.830;2023-07-16T00:41:47;19.00;99.90
20957;DHT22;10637;47.970;7.830;2023-07-16T00:46:50;19.10;99.90
20957;DHT22;10637;47.970;7.830;2023-07-16T00:51:52;19.10;99.90
20957;DHT22;10637;47.970;7.830;2023-07-16T00:56:54;18.90;99.90
20957;DHT22;10637;47.970;7.830;2023-07-16T01:01:56;18.60;99.90
20957;DHT22;10637;47.970;7.830;2023-07-16T01:07:01;18.30;99.90
20957;DHT22;10637;47.970;7.830;2023-07-16T01:12:06;18.30;99.90
20957;DHT22;10637;47.970;7.830;2023-07-16T01:17:09;18.50;99.90
20957;DHT22;10637;47.970;7.830;2023-07-16T01:33:05;19.20;99.90
20957;DHT22;10637;47.970;7.830;2023-07-16T01:38:10;19.10;99.90
20957;DHT22;10637;47.970;7.830;2023-07-16T01:43:12;18.90;99.90
20957;DHT22;10637;47.970;7.830;2023-07-16T01:48:30;18.70;99.90
20957;DHT22;10637;47.970;7.830;2023-07-16T01:53:32;18.50;99.90
20957;DHT22;10637;47.970;7.830;2023-07-16T01:58:34;18.50;99.90
20957;DHT22;10637;47.970;7.830;2023-07-16T02:03:35;18.10;99.90
20957;DHT22;10637;47.970;7.830;2023-07-16T02:08:37;18.00;99.90
20957;DHT22;10637;47.970;7.830;2023-07-16T02:13:39;17.80;99.90
20957;DHT22;10637;47.970;7.830;2023-07-16T02:18:41;17.90;99.90
20957;DHT22;10637;47.970;7.830;2023-07-16T02:23:42;17.90;99.90
20957;DHT22;10637;47.970;7.830;2023-07-16T02:28:44;17.80;99.90
20957;DHT22;10637;47.970;7.830;2023-07-16T02:33:46;18.40;99.90
20957;DHT22;10637;47.970;7.830;2023-07-16T02:38:48;18.40;99.90
20957;DHT22;10637;47.970;7.830;2023-07-16T02:44:04;18.40;99.90
20957;DHT22;10637;47.970;7.830;2023-07-16T02:49:06;18.30;99.90
20957;DHT22;10637;47.970;7.830;2023-07-16T02:54:08;18.00;99.90
20957;DHT22;10637;47.970;7.830;2023-07-16T02:59:10;18.20;99.90
20957;DHT22;10637;47.970;7.830;2023-07-16T03:04:12;18.30;99.90
20957;DHT22;10637;47.970;7.830;2023-07-16T03:09:13;18.50;99.90
20957;DHT22;10637;47.970;7.830;2023-07-16T03:14:15;18.20;99.90
20957;DHT22;10637;47.970;7.830;2023-07-16T03:19:17;17.90;99.90
20957;DHT22;10637;47.970;7.830;2023-07-16T03:24:19;17.80;99.90
20957;DHT22;10637;47.970;7.830;2023-07-16T03:29:20;17.90;99.90
20957;DHT22;10637;47.970;7.830;2023-07-16T03:34:22;18.00;99.90
20957;DHT22;10637;47.970;7.830;2023-07-16T03:39:25;18.40;99.90
20957;DHT22;10637;47.970;7.830;2023-07-16T03:44:28;18.30;99.90
20957;DHT22;10637;47.970;7.830;2023-07-16T03:49:30;18.80;99.90
20957;DHT22;10637;47.970;7.830;2023-07-16T03:54:31;19.00;99.90
20957;DHT22;10637;47.970;7.830;2023-07-16T03:59:33;19.00;99.90
20957;DHT22;10637;47.970;7.830;2023-07-16T04:04:35;18.60;99.90
20957;DHT22;10637;47.970;7.830;2023-07-16T04:09:38;18.80;99.90
20957;DHT22;10637;47.970;7.830;2023-07-16T04:14:40;18.70;99.90
20957;DHT22;10637;47.970;7.830;2023-07-16T04:19:41;18.90;99.90
20957;DHT22;10637;47.970;7.830;2023-07-16T04:24:43;18.80;99.90
20957;DHT22;10637;47.970;7.830;2023-07-16T04:29:45;18.40;99.90
20957;DHT22;10637;47.970;7.830;2023-07-16T04:34:47;18.40;99.90
20957;DHT22;10637;47.970;7.830;2023-07-16T04:39:48;18.30;99.90
20957;DHT22;10637;47.970;7.830;2023-07-16T04:44:50;18.20;99.90
20957;DHT22;10637;47.970;7.830;2023-07-16T04:49:52;18.20;99.90
20957;DHT22;10637;47.970;7.830;2023-07-16T04:54:53;18.00;99.90
20957;DHT22;10637;47.970;7.830;2023-07-16T04:59:55;18.40;99.90
20957;DHT22;10637;47.970;7.830;2023-07-16T05:04:57;18.40;99.90
20957;DHT22;10637;47.970;7.830;2023-07-16T05:09:59;18.10;99.90
20957;DHT22;10637;47.970;7.830;2023-07-16T05:15:00;18.20;99.90
20957;DHT22;10637;47.970;7.830;2023-07-16T05:20:02;18.30;99.90
20957;DHT22;10637;47.970;7.830;2023-07-16T05:25:05;18.30;99.90
20957;DHT22;10637;47.970;7.830;2023-07-16T05:30:08;18.10;99.90
20957;DHT22;10637;47.970;7.830;2023-07-16T05:35:10;18.30;99.90
20957;DHT22;10637;47.970;7.830;2023-07-16T05:40:11;18.80;99.90
20957;DHT22;10637;47.970;7.830;2023-07-16T05:45:13;18.90;99.90
20957;DHT22;10637;47.970;7.830;2023-07-16T05:50:15;18.70;99.90
20957;DHT22;10637;47.970;7.830;2023-07-16T05:55:17;18.80;99.90
20957;DHT22;10637;47.970;7.830;2023-07-16T06:00:19;18.70;99.90
20957;DHT22;10637;47.970;7.830;2023-07-16T06:05:22;18.70;99.90
20957;DHT22;10637;47.970;7.830;2023-07-16T06:10:24;18.80;99.90
20957;DHT22;10637;47.970;7.830;2023-07-16T06:15:25;18.80;99.90
20957;DHT22;10637;47.970;7.830;2023-07-16T06:20:27;19.00;99.90
20957;DHT22;10637;47.970;7.830;2023-07-16T06:25:30;19.10;99.90
20957;DHT22;10637;47.970;7.830;2023-07-16T06:30:32;19.20;99.90
20957;DHT22;10637;47.970;7.830;2023-07-16T06:35:35;19.60;99.90
20957;DHT22;10637;47.970;7.830;2023-07-16T06:40:37;20.50;99.90
20957;DHT22;10637;47.970;7.830;2023-07-16T06:45:39;20.30;99.90
20957;DHT22;10637;47.970;7.830;2023-07-16T06:50:50;19.80;99.90
20957;DHT22;10637;47.970;7.830;2023-07-16T06:55:52;19.70;99.90
20957;DHT22;10637;47.970;7.830;2023-07-16T07:00:56;19.50;99.90
20957;DHT22;10637;47.970;7.830;2023-07-16T07:05:58;19.90;99.90
20957;DHT22;10637;47.970;7.830;2023-07-16T07:11:01;19.60;99.90
20957;DHT22;10637;47.970;7.830;2023-07-16T07:16:02;19.60;99.90
20957;DHT22;10637;47.970;7.830;2023-07-16T07:21:04;19.80;99.90
20957;DHT22;10637;47.970;7.830;2023-07-16T07:26:06;20.00;99.90
20957;DHT22;10637;47.970;7.830;2023-07-16T07:31:08;20.10;99.90
20957;DHT22;10637;47.970;7.830;2023-07-16T07:36:10;20.10;99.90
20957;DHT22;10637;47.970;7.830;2023-07-16T07:41:11;20.20;99.90
20957;DHT22;10637;47.970;7.830;2023-07-16T07:46:13;20.60;99.90
20957;DHT22;10637;47.970;7.830;2023-07-16T07:51:15;20.70;99.90
20957;DHT22;10637;47.970;7.830;2023-07-16T07:56:17;20.70;99.90
20957;DHT22;10637;47.970;7.830;2023-07-16T08:01:19;21.30;99.90
20957;DHT22;10637;47.970;7.830;2023-07-16T08:06:21;20.60;99.90
20957;DHT22;10637;47.970;7.830;2023-07-16T08:11:23;21.00;99.90
20957;DHT22;10637;47.970;7.830;2023-07-16T08:16:24;21.20;99.90
20957;DHT22;10637;47.970;7.830;2023-07-16T08:21:26;21.20;99.90
20957;DHT22;10637;47.970;7.830;2023-07-16T08:26:28;21.30;99.90
20957;DHT22;10637;47.970;7.830;2023-07-16T08:31:30;21.50;99.90
20957;DHT22;10637;47.970;7.830;2023-07-16T08:36:33;21.30;99.90
20957;DHT22;10637;47.970;7.830;2023-07-16T08:41:35;21.40;99.90
20957;DHT22;10637;47.970;7.830;2023-07-16T08:46:37;21.90;99.90
20957;DHT22;10637;47.970;7.830;2023-07-16T08:51:39;21.90;99.90
20957;DHT22;10637;47.970;7.830;2023-07-16T08:56:43;21.50;99.90
20957;DHT22;10637;47.970;7.830;2023-07-16T09:01:48;21.50;99.90
20957;DHT22;10637;47.970;7.830;2023-07-16T09:06:50;22.10;99.90
20957;DHT22;10637;47.970;7.830;2023-07-16T09:11:52;22.10;99.90
20957;DHT22;10637;47.970;7.830;2023-07-16T09:16:54;22.70;99.90
20957;DHT22;10637;47.970;7.830;2023-07-16T09:21:56;22.80;99.90
20957;DHT22;10637;47.970;7.830;2023-07-16T09:26:57;22.30;99.90
20957;DHT22;10637;47.970;7.830;2023-07-16T09:32:00;22.70;99.90
20957;DHT22;10637;47.970;7.830;2023-07-16T09:37:06;23.00;99.90
20957;DHT22;10637;47.970;7.830;2023-07-16T09:42:08;23.50;99.90
20957;DHT22;10637;47.970;7.830;2023-07-16T09:47:10;23.20;99.90
20957;DHT22;10637;47.970;7.830;2023-07-16T09:52:12;22.80;99.90
20957;DHT22;10637;47.970;7.830;2023-07-16T09:57:16;23.50;99.90
20957;DHT22;10637;47.970;7.830;2023-07-16T10:02:20;23.50;99.90
20957;DHT22;10637;47.970;7.830;2023-07-16T10:07:24;23.40;99.90
20957;DHT22;10637;47.970;7.830;2023-07-16T10:12:26;23.50;99.90
20957;DHT22;10637;47.970;7.830;2023-07-16T10:17:31;23.30;99.90
20957;DHT22;10637;47.970;7.830;2023-07-16T10:22:38;23.40;99.90
20957;DHT22;10637;47.970;7.830;2023-07-16T10:27:40;24.40;99.90
20957;DHT22;10637;47.970;7.830;2023-07-16T10:32:43;24.40;99.90
20957;DHT22;10637;47.970;7.830;2023-07-16T10:37:45;25.90;99.90
20957;DHT22;10637;47.970;7.830;2023-07-16T10:42:47;26.40;99.90
20957;DHT22;10637;47.970;7.830;2023-07-16T10:47:53;27.00;99.90
20957;DHT22;10637;47.970;7.830;2023-07-16T10:52:56;27.60;99.90
20957;DHT22;10637;47.970;7.830;2023-07-16T10:57:58;25.30;99.90
20957;DHT22;10637;47.970;7.830;2023-07-16T11:03:05;24.30;99.90
20957;DHT22;10637;47.970;7.830;2023-07-16T11:08:07;24.70;99.90
20957;DHT22;10637;47.970;7.830;2023-07-16T11:13:09;24.40;99.90
20957;DHT22;10637;47.970;7.830;2023-07-16T11:18:11;24.30;99.90
20957;DHT22;10637;47.970;7.830;2023-07-16T11:23:14;25.00;99.90
20957;DHT22;10637;47.970;7.830;2023-07-16T11:28:16;25.70;99.90
20957;DHT22;10637;47.970;7.830;2023-07-16T11:33:17;25.90;99.90
20957;DHT22;10637;47.970;7.830;2023-07-16T11:38:19;26.60;99.90
20957;DHT22;10637;47.970;7.830;2023-07-16T11:43:21;26.40;99.90
20957;DHT22;10637;47.970;7.830;2023-07-16T11:48:23;26.20;99.90
20957;DHT22;10637;47.970;7.830;2023-07-16T11:53:25;24.60;99.90
20957;DHT22;10637;47.970;7.830;2023-07-16T11:58:26;25.20;99.90
20957;DHT22;10637;47.970;7.830;2023-07-16T12:03:28;26.80;99.90
20957;DHT22;10637;47.970;7.830;2023-07-16T12:08:30;27.80;99.90
20957;DHT22;10637;47.970;7.830;2023-07-16T12:13:32;26.90;99.90
20957;DHT22;10637;47.970;7.830;2023-07-16T12:18:33;25.80;99.90
20957;DHT22;10637;47.970;7.830;2023-07-16T12:23:35;25.30;99.90
20957;DHT22;10637;47.970;7.830;2023-07-16T12:28:37;25.40;99.90
20957;DHT22;10637;47.970;7.830;2023-07-16T12:33:38;25.70;99.90
20957;DHT22;10637;47.970;7.830;2023-07-16T12:38:41;26.00;99.90
20957;DHT22;10637;47.970;7.830;2023-07-16T12:43:43;25.50;99.90
20957;DHT22;10637;47.970;7.830;2023-07-16T12:48:44;25.60;99.90
20957;DHT22;10637;47.970;7.830;2023-07-16T12:53:46;26.20;99.90
20957;DHT22;10637;47.970;7.830;2023-07-16T12:58:48;26.40;99.90
20957;DHT22;10637;47.970;7.830;2023-07-16T13:03:50;26.00;99.90
20957;DHT22;10637;47.970;7.830;2023-07-16T13:08:52;25.70;99.90
20957;DHT22;10637;47.970;7.830;2023-07-16T13:13:54;26.60;99.90
20957;DHT22;10637;47.970;7.830;2023-07-16T13:18:55;26.70;99.90
20957;DHT22;10637;47.970;7.830;2023-07-16T13:23:57;26.20;99.90
20957;DHT22;10637;47.970;7.830;2023-07-16T13:28:59;26.20;99.90
20957;DHT22;10637;47.970;7.830;2023-07-16T13:34:00;25.70;99.90
20957;DHT22;10637;47.970;7.830;2023-07-16T13:39:02;25.70;99.90
20957;DHT22;10637;47.970;7.830;2023-07-16T13:44:06;25.60;99.90
20957;DHT22;10637;47.970;7.830;2023-07-16T13:49:08;25.30;99.90
20957;DHT22;10637;47.970;7.830;2023-07-16T13:54:11;25.50;99.90
20957;DHT22;10637;47.970;7.830;2023-07-16T13:59:13;25.50;99.90
20957;DHT22;10637;47.970;7.830;2023-07-16T14:04:15;25.30;99.90
20957;DHT22;10637;47.970;7.830;2023-07-16T14:09:18;25.90;99.90
20957;DHT22;10637;47.970;7.830;2023-07-16T14:14:22;25.70;99.90
20957;DHT22;10637;47.970;7.830;2023-07-16T14:19:24;26.00;99.90
20957;DHT22;10637;47.970;7.830;2023-07-16T14:24:25;26.00;99.90
20957;DHT22;10637;47.970;7.830;2023-07-16T14:29:27;26.20;99.90
20957;DHT22;10637;47.970;7.830;2023-07-16T14:34:30;26.50;99.90
20957;DHT22;10637;47.970;7.830;2023-07-16T14:39:32;27.00;99.90
20957;DHT22;10637;47.970;7.830;2023-07-16T14:44:34;26.80;99.90
20957;DHT22;10637;47.970;7.830;2023-07-16T14:49:37;26.30;99.90
20957;DHT22;10637;47.970;7.830;2023-07-16T14:54:38;26.50;99.90
20957;DHT22;10637;47.970;7.830;2023-07-16T14:59:40;26.80;99.20
20957;DHT22;10637;47.970;7.830;2023-07-16T15:04:42;26.80;99.90
20957;DHT22;10637;47.970;7.830;2023-07-16T15:09:44;26.60;99.90
20957;DHT22;10637;47.970;7.830;2023-07-16T15:14:46;26.20;99.90
20957;DHT22;10637;47.970;7.830;2023-07-16T15:19:48;26.80;99.90
20957;DHT22;10637;47.970;7.830;2023-07-16T15:24:50;27.30;99.40
20957;DHT22;10637;47.970;7.830;2023-07-16T15:29:52;27.00;99.50
20957;DHT22;10637;47.970;7.830;2023-07-16T15:34:54;26.60;99.90
20957;DHT22;10637;47.970;7.830;2023-07-16T15:39:55;26.80;99.90
20957;DHT22;10637;47.970;7.830;2023-07-16T15:45:00;27.30;99.90
20957;DHT22;10637;47.970;7.830;2023-07-16T15:50:02;27.50;98.60
20957;DHT22;10637;47.970;7.830;2023-07-16T15:55:04;27.40;97.60
20957;DHT22;10637;47.970;7.830;2023-07-16T16:00:07;27.10;98.10
20957;DHT22;10637;47.970;7.830;2023-07-16T16:05:16;27.10;97.60
20957;DHT22;10637;47.970;7.830;2023-07-16T16:10:17;27.60;97.00
20957;DHT22;10637;47.970;7.830;2023-07-16T16:15:19;27.40;97.60
20957;DHT22;10637;47.970;7.830;2023-07-16T16:20:21;27.20;98.20
20957;DHT22;10637;47.970;7.830;2023-07-16T16:25:23;27.00;99.00
20957;DHT22;10637;47.970;7.830;2023-07-16T16:30:25;26.80;98.90
20957;DHT22;10637;47.970;7.830;2023-07-16T16:35:26;26.60;99.00
20957;DHT22;10637;47.970;7.830;2023-07-16T16:40:29;27.20;99.60
20957;DHT22;10637;47.970;7.830;2023-07-16T16:45:31;26.80;99.40
20957;DHT22;10637;47.970;7.830;2023-07-16T16:50:33;27.10;99.00
20957;DHT22;10637;47.970;7.830;2023-07-16T16:55:35;27.10;98.70
20957;DHT22;10637;47.970;7.830;2023-07-16T17:00:37;27.20;99.00
20957;DHT22;10637;47.970;7.830;2023-07-16T17:05:39;26.80;98.00
20957;DHT22;10637;47.970;7.830;2023-07-16T17:10:41;26.60;98.80
20957;DHT22;10637;47.970;7.830;2023-07-16T17:15:46;26.20;99.80
20957;DHT22;10637;47.970;7.830;2023-07-16T17:20:48;26.50;98.70
20957;DHT22;10637;47.970;7.830;2023-07-16T17:25:49;25.90;99.00
20957;DHT22;10637;47.970;7.830;2023-07-16T17:30:51;26.30;99.00
20957;DHT22;10637;47.970;7.830;2023-07-16T17:35:54;26.40;99.20
20957;DHT22;10637;47.970;7.830;2023-07-16T17:40:56;26.70;99.90
20957;DHT22;10637;47.970;7.830;2023-07-16T17:45:58;26.50;99.40
20957;DHT22;10637;47.970;7.830;2023-07-16T17:51:02;26.30;99.60
20957;DHT22;10637;47.970;7.830;2023-07-16T17:56:04;25.90;99.30
20957;DHT22;10637;47.970;7.830;2023-07-16T18:01:06;25.60;99.60
20957;DHT22;10637;47.970;7.830;2023-07-16T18:06:08;25.70;99.90
20957;DHT22;10637;47.970;7.830;2023-07-16T18:11:10;25.70;99.90
20957;DHT22;10637;47.970;7.830;2023-07-16T18:16:12;25.20;99.90
20957;DHT22;10637;47.970;7.830;2023-07-16T18:21:14;25.00;99.90
20957;DHT22;10637;47.970;7.830;2023-07-16T18:26:34;25.00;99.90
20957;DHT22;10637;47.970;7.830;2023-07-16T18:31:36;24.80;99.90
20957;DHT22;10637;47.970;7.830;2023-07-16T18:36:38;24.70;99.90
20957;DHT22;10637;47.970;7.830;2023-07-16T18:41:40;24.80;99.90
20957;DHT22;10637;47.970;7.830;2023-07-16T18:46:43;24.70;99.90
20957;DHT22;10637;47.970;7.830;2023-07-16T18:51:44;24.60;99.90
20957;DHT22;10637;47.970;7.830;2023-07-16T18:56:46;24.50;99.90
20957;DHT22;10637;47.970;7.830;2023-07-16T19:01:48;24.30;99.90
20957;DHT22;10637;47.970;7.830;2023-07-16T19:06:50;24.30;99.90
20957;DHT22;10637;47.970;7.830;2023-07-16T19:11:52;24.10;99.90
20957;DHT22;10637;47.970;7.830;2023-07-16T19:16:54;24.00;99.90
20957;DHT22;10637;47.970;7.830;2023-07-16T19:21:56;24.00;99.90
20957;DHT22;10637;47.970;7.830;2023-07-16T19:26:57;24.10;99.90
20957;DHT22;10637;47.970;7.830;2023-07-16T19:31:59;24.10;99.90
20957;DHT22;10637;47.970;7.830;2023-07-16T19:37:01;24.10;99.90
20957;DHT22;10637;47.970;7.830;2023-07-16T19:42:05;24.00;99.90
20957;DHT22;10637;47.970;7.830;2023-07-16T19:47:07;23.80;99.90
20957;DHT22;10637;47.970;7.830;2023-07-16T19:52:09;23.70;99.90
20957;DHT22;10637;47.970;7.830;2023-07-16T19:57:12;23.80;99.90
20957;DHT22;10637;47.970;7.830;2023-07-16T20:02:14;24.00;99.90
20957;DHT22;10637;47.970;7.830;2023-07-16T20:07:15;23.90;99.90
20957;DHT22;10637;47.970;7.830;2023-07-16T20:12:17;23.60;99.90
20957;DHT22;10637;47.970;7.830;2023-07-16T20:17:19;23.70;99.90
20957;DHT22;10637;47.970;7.830;2023-07-16T20:22:22;23.60;99.90
20957;DHT22;10637;47.970;7.830;2023-07-16T20:27:23;23.50;99.90
20957;DHT22;10637;47.970;7.830;2023-07-16T20:32:25;23.60;99.90
20957;DHT22;10637;47.970;7.830;2023-07-16T20:37:27;23.60;99.90
20957;DHT22;10637;47.970;7.830;2023-07-16T20:42:29;23.60;99.90
20957;DHT22;10637;47.970;7.830;2023-07-16T20:47:30;23.20;99.90
20957;DHT22;10637;47.970;7.830;2023-07-16T20:52:32;23.20;99.90
20957;DHT22;10637;47.970;7.830;2023-07-16T20:57:34;22.70;99.90
20957;DHT22;10637;47.970;7.830;2023-07-16T21:02:36;22.70;99.90
20957;DHT22;10637;47.970;7.830;2023-07-16T21:07:39;22.60;99.90
20957;DHT22;10637;47.970;7.830;2023-07-16T21:12:42;22.10;99.90
20957;DHT22;10637;47.970;7.830;2023-07-16T21:17:44;22.10;99.90
20957;DHT22;10637;47.970;7.830;2023-07-16T21:22:46;21.80;99.90
20957;DHT22;10637;47.970;7.830;2023-07-16T21:27:56;21.60;99.90
20957;DHT22;10637;47.970;7.830;2023-07-16T21:32:58;21.60;99.90
20957;DHT22;10637;47.970;7.830;2023-07-16T21:38:00;21.50;99.90
20957;DHT22;10637;47.970;7.830;2023-07-16T21:43:02;21.30;99.90
20957;DHT22;10637;47.970;7.830;2023-07-16T21:48:05;21.20;99.90
20957;DHT22;10637;47.970;7.830;2023-07-16T21:53:15;20.80;99.90
20957;DHT22;10637;47.970;7.830;2023-07-16T21:58:17;20.70;99.90
20957;DHT22;10637;47.970;7.830;2023-07-16T22:03:19;20.90;99.90
20957;DHT22;10637;47.970;7.830;2023-07-16T22:08:21;21.00;99.90
20957;DHT22;10637;47.970;7.830;2023-07-16T22:13:23;21.00;99.90
20957;DHT22;10637;47.970;7.830;2023-07-16T22:18:24;21.20;99.90
20957;DHT22;10637;47.970;7.830;2023-07-16T22:23:26;21.20;99.90
20957;DHT22;10637;47.970;7.830;2023-07-16T22:28:28;21.20;99.90
20957;DHT22;10637;47.970;7.830;2023-07-16T22:33:30;21.10;99.90
20957;DHT22;10637;47.970;7.830;2023-07-16T22:38:32;21.20;99.90
20957;DHT22;10637;47.970;7.830;2023-07-16T22:43:34;21.10;99.90
20957;DHT22;10637;47.970;7.830;2023-07-16T22:48:39;21.00;99.90
20957;DHT22;10637;47.970;7.830;2023-07-16T22:53:41;20.90;99.90
20957;DHT22;10637;47.970;7.830;2023-07-16T22:58:43;20.80;99.90
20957;DHT22;10637;47.970;7.830;2023-07-16T23:03:45;20.50;99.90
20957;DHT22;10637;47.970;7.830;2023-07-16T23:08:47;20.10;99.90
20957;DHT22;10637;47.970;7.830;2023-07-16T23:13:48;20.40;99.90
20957;DHT22;10637;47.970;7.830;2023-07-16T23:18:50;20.20;99.90
20957;DHT22;10637;47.970;7.830;2023-07-16T23:23:52;20.20;99.90
20957;DHT22;10637;47.970;7.830;2023-07-16T23:28:54;20.30;99.90
20957;DHT22;10637;47.970;7.830;2023-07-16T23:33:55;20.30;99.90
20957;DHT22;10637;47.970;7.830;2023-07-16T23:38:57;19.80;99.90
20957;DHT22;10637;47.970;7.830;2023-07-16T23:43:59;19.70;99.90
20957;DHT22;10637;47.970;7.830;2023-07-16T23:49:01;19.80;99.90
20957;DHT22;10637;47.970;7.830;2023-07-16T23:54:02;19.80;99.90
20957;DHT22;10637;47.970;7.830;2023-07-16T23:59:22;19.90;99.90
